sensor_id;sensor_type;location;lat;lon;timestamp;pressure;altitude;pressure_sealevel;temperature;humidity
57847;BME280;43675;50.030;21.952;2024-03-06T00:00:30;98750.73;;;5.56;91.79
57847;BME280;43675;50.030;21.952;2024-03-06T00:03:17;98748.06;;;5.64;91.53
57847;BME280;43675;50.030;21.952;2024-03-06T00:05:43;98747.04;;;5.62;91.48
57847;BME280;43675;50.030;21.952;2024-03-06T00:08:10;98745.13;;;5.57;91.36
57847;BME280;43675;50.030;21.952;2024-03-06T00:10:37;98748.31;;;5.54;91.55
57847;BME280;43675;50.030;21.952;2024-03-06T00:13:04;98748.05;;;5.63;91.47
57847;BME280;43675;50.030;21.952;2024-03-06T00:15:30;98751.35;;;5.67;91.11
57847;BME280;43675;50.030;21.952;2024-03-06T00:17:57;98753.66;;;5.63;91.12
57847;BME280;43675;50.030;21.952;2024-03-06T00:20:23;98750.25;;;5.57;91.20
57847;BME280;43675;50.030;21.952;2024-03-06T00:22:50;98754.10;;;5.55;91.32
57847;BME280;43675;50.030;21.952;2024-03-06T00:25:17;98754.66;;;5.64;91.30
57847;BME280;43675;50.030;21.952;2024-03-06T00:27:43;98761.16;;;5.74;90.94
57847;BME280;43675;50.030;21.952;2024-03-06T00:30:16;98758.27;;;5.81;90.75
57847;BME280;43675;50.030;21.952;2024-03-06T00:32:43;98762.72;;;5.88;90.58
57847;BME280;43675;50.030;21.952;2024-03-06T00:35:09;98764.43;;;5.93;90.36
57847;BME280;43675;50.030;21.952;2024-03-06T00:37:36;98765.19;;;5.87;90.36
57847;BME280;43675;50.030;21.952;2024-03-06T00:40:03;98758.02;;;5.72;90.62
57847;BME280;43675;50.030;21.952;2024-03-06T00:42:29;98762.80;;;5.66;90.87
57847;BME280;43675;50.030;21.952;2024-03-06T00:44:56;98763.13;;;5.61;91.00
57847;BME280;43675;50.030;21.952;2024-03-06T00:47:23;98760.85;;;5.59;91.18
57847;BME280;43675;50.030;21.952;2024-03-06T00:49:56;98762.90;;;5.57;91.20
57847;BME280;43675;50.030;21.952;2024-03-06T00:52:23;98764.86;;;5.57;91.08
57847;BME280;43675;50.030;21.952;2024-03-06T00:54:52;98764.20;;;5.56;91.35
57847;BME280;43675;50.030;21.952;2024-03-06T00:57:19;98762.73;;;5.56;91.42
57847;BME280;43675;50.030;21.952;2024-03-06T00:59:45;98765.85;;;5.57;91.44
57847;BME280;43675;50.030;21.952;2024-03-06T01:02:12;98767.09;;;5.57;91.42
57847;BME280;43675;50.030;21.952;2024-03-06T01:04:40;98767.16;;;5.56;91.45
57847;BME280;43675;50.030;21.952;2024-03-06T01:07:10;98764.25;;;5.57;91.41
57847;BME280;43675;50.030;21.952;2024-03-06T01:09:36;98764.36;;;5.59;91.60
57847;BME280;43675;50.030;21.952;2024-03-06T01:12:03;98768.30;;;5.73;91.42
57847;BME280;43675;50.030;21.952;2024-03-06T01:14:36;98767.71;;;5.86;91.01
57847;BME280;43675;50.030;21.952;2024-03-06T01:17:03;98768.64;;;5.95;90.53
57847;BME280;43675;50.030;21.952;2024-03-06T01:19:29;98765.58;;;6.01;90.18
57847;BME280;43675;50.030;21.952;2024-03-06T01:21:56;98766.80;;;6.06;89.99
57847;BME280;43675;50.030;21.952;2024-03-06T01:24:22;98770.15;;;6.09;89.72
57847;BME280;43675;50.030;21.952;2024-03-06T01:26:49;98769.63;;;6.06;89.54
57847;BME280;43675;50.030;21.952;2024-03-06T01:29:16;98774.38;;;5.95;89.67
57847;BME280;43675;50.030;21.952;2024-03-06T01:31:43;98770.50;;;5.81;89.75
57847;BME280;43675;50.030;21.952;2024-03-06T01:34:09;98774.30;;;5.68;89.93
57847;BME280;43675;50.030;21.952;2024-03-06T01:36:38;98776.54;;;5.57;90.12
57847;BME280;43675;50.030;21.952;2024-03-06T01:39:05;98773.90;;;5.46;90.31
57847;BME280;43675;50.030;21.952;2024-03-06T01:41:32;98772.80;;;5.39;90.56
57847;BME280;43675;50.030;21.952;2024-03-06T01:43:58;98774.69;;;5.32;90.86
57847;BME280;43675;50.030;21.952;2024-03-06T01:46:25;98776.48;;;5.27;91.10
57847;BME280;43675;50.030;21.952;2024-03-06T01:48:52;98773.35;;;5.24;91.28
57847;BME280;43675;50.030;21.952;2024-03-06T01:51:19;98772.95;;;5.21;91.59
57847;BME280;43675;50.030;21.952;2024-03-06T01:53:46;98772.89;;;5.20;91.75
57847;BME280;43675;50.030;21.952;2024-03-06T01:56:12;98773.13;;;5.23;91.85
57847;BME280;43675;50.030;21.952;2024-03-06T01:58:47;98774.13;;;5.20;92.16
57847;BME280;43675;50.030;21.952;2024-03-06T02:01:15;98771.46;;;5.18;92.02
57847;BME280;43675;50.030;21.952;2024-03-06T02:03:43;98772.62;;;5.19;92.36
57847;BME280;43675;50.030;21.952;2024-03-06T02:06:11;98774.94;;;5.32;92.34
57847;BME280;43675;50.030;21.952;2024-03-06T02:08:38;98771.72;;;5.42;91.93
57847;BME280;43675;50.030;21.952;2024-03-06T02:11:04;98773.79;;;5.49;91.80
57847;BME280;43675;50.030;21.952;2024-03-06T02:13:31;98773.61;;;5.53;91.58
57847;BME280;43675;50.030;21.952;2024-03-06T02:15:58;98769.64;;;5.55;91.50
57847;BME280;43675;50.030;21.952;2024-03-06T02:18:24;98773.70;;;5.58;91.50
57847;BME280;43675;50.030;21.952;2024-03-06T02:20:51;98771.77;;;5.61;91.47
57847;BME280;43675;50.030;21.952;2024-03-06T02:23:17;98771.76;;;5.62;91.38
57847;BME280;43675;50.030;21.952;2024-03-06T02:25:50;98770.85;;;5.64;91.36
57847;BME280;43675;50.030;21.952;2024-03-06T02:28:17;98771.47;;;5.68;91.32
57847;BME280;43675;50.030;21.952;2024-03-06T02:30:44;98767.48;;;5.72;91.29
57847;BME280;43675;50.030;21.952;2024-03-06T02:33:10;98766.71;;;5.76;91.39
57847;BME280;43675;50.030;21.952;2024-03-06T02:35:37;98766.95;;;5.77;91.29
57847;BME280;43675;50.030;21.952;2024-03-06T02:38:04;98769.84;;;5.73;91.10
57847;BME280;43675;50.030;21.952;2024-03-06T02:40:31;98772.09;;;5.60;91.26
57847;BME280;43675;50.030;21.952;2024-03-06T02:42:58;98771.00;;;5.48;91.62
57847;BME280;43675;50.030;21.952;2024-03-06T02:45:24;98772.94;;;5.40;92.04
57847;BME280;43675;50.030;21.952;2024-03-06T02:47:51;98771.91;;;5.33;92.22
57847;BME280;43675;50.030;21.952;2024-03-06T02:50:18;98770.08;;;5.26;92.52
57847;BME280;43675;50.030;21.952;2024-03-06T02:52:44;98769.50;;;5.20;92.67
57847;BME280;43675;50.030;21.952;2024-03-06T02:55:11;98769.05;;;5.16;92.89
57847;BME280;43675;50.030;21.952;2024-03-06T02:57:37;98767.96;;;5.15;93.13
57847;BME280;43675;50.030;21.952;2024-03-06T03:00:05;98770.88;;;5.13;93.11
57847;BME280;43675;50.030;21.952;2024-03-06T03:02:32;98769.23;;;5.12;93.12
57847;BME280;43675;50.030;21.952;2024-03-06T03:04:58;98767.91;;;5.22;93.26
57847;BME280;43675;50.030;21.952;2024-03-06T03:07:25;98765.71;;;5.33;93.01
57847;BME280;43675;50.030;21.952;2024-03-06T03:09:51;98763.21;;;5.41;92.67
57847;BME280;43675;50.030;21.952;2024-03-06T03:12:18;98765.11;;;5.47;92.31
57847;BME280;43675;50.030;21.952;2024-03-06T03:14:51;98765.09;;;5.50;92.04
57847;BME280;43675;50.030;21.952;2024-03-06T03:17:18;98763.82;;;5.53;92.13
57847;BME280;43675;50.030;21.952;2024-03-06T03:19:45;98763.77;;;5.57;91.90
57847;BME280;43675;50.030;21.952;2024-03-06T03:22:12;98762.12;;;5.59;91.82
57847;BME280;43675;50.030;21.952;2024-03-06T03:24:38;98762.60;;;5.61;91.88
57847;BME280;43675;50.030;21.952;2024-03-06T03:27:05;98763.88;;;5.63;91.84
57847;BME280;43675;50.030;21.952;2024-03-06T03:29:31;98763.83;;;5.65;91.82
57847;BME280;43675;50.030;21.952;2024-03-06T03:31:58;98762.40;;;5.64;91.72
57847;BME280;43675;50.030;21.952;2024-03-06T03:34:24;98764.09;;;5.50;91.84
57847;BME280;43675;50.030;21.952;2024-03-06T03:36:51;98764.64;;;5.36;92.02
57847;BME280;43675;50.030;21.952;2024-03-06T03:39:18;98766.98;;;5.27;92.40
57847;BME280;43675;50.030;21.952;2024-03-06T03:41:51;98768.63;;;5.20;92.82
57847;BME280;43675;50.030;21.952;2024-03-06T03:44:18;98769.54;;;5.15;92.93
57847;BME280;43675;50.030;21.952;2024-03-06T03:46:45;98775.31;;;5.12;93.19
57847;BME280;43675;50.030;21.952;2024-03-06T03:49:12;98779.56;;;5.16;93.24
57847;BME280;43675;50.030;21.952;2024-03-06T03:51:39;98778.90;;;5.13;93.02
57847;BME280;43675;50.030;21.952;2024-03-06T03:54:05;98778.30;;;5.21;93.17
57847;BME280;43675;50.030;21.952;2024-03-06T03:56:32;98779.31;;;5.28;92.94
57847;BME280;43675;50.030;21.952;2024-03-06T03:58:59;98779.34;;;5.33;92.76
57847;BME280;43675;50.030;21.952;2024-03-06T04:01:26;98779.52;;;5.39;92.44
57847;BME280;43675;50.030;21.952;2024-03-06T04:03:52;98774.17;;;5.42;92.25
57847;BME280;43675;50.030;21.952;2024-03-06T04:06:19;98776.00;;;5.47;92.08
57847;BME280;43675;50.030;21.952;2024-03-06T04:08:45;98778.48;;;5.48;92.09
57847;BME280;43675;50.030;21.952;2024-03-06T04:11:12;98779.02;;;5.51;92.06
57847;BME280;43675;50.030;21.952;2024-03-06T04:13:39;98780.81;;;5.52;91.80
57847;BME280;43675;50.030;21.952;2024-03-06T04:16:05;98780.90;;;5.50;91.71
57847;BME280;43675;50.030;21.952;2024-03-06T04:18:33;98780.02;;;5.40;91.95
57847;BME280;43675;50.030;21.952;2024-03-06T04:21:04;98782.27;;;5.37;92.19
57847;BME280;43675;50.030;21.952;2024-03-06T04:23:32;98780.45;;;5.39;92.16
57847;BME280;43675;50.030;21.952;2024-03-06T04:26:00;98782.20;;;5.38;92.04
57847;BME280;43675;50.030;21.952;2024-03-06T04:28:26;98787.43;;;5.28;92.12
57847;BME280;43675;50.030;21.952;2024-03-06T04:30:59;98782.15;;;5.31;92.40
57847;BME280;43675;50.030;21.952;2024-03-06T04:33:26;98787.09;;;5.37;92.27
57847;BME280;43675;50.030;21.952;2024-03-06T04:35:52;98789.58;;;5.43;92.03
57847;BME280;43675;50.030;21.952;2024-03-06T04:38:19;98790.88;;;5.47;91.88
57847;BME280;43675;50.030;21.952;2024-03-06T04:40:45;98790.02;;;5.42;91.78
57847;BME280;43675;50.030;21.952;2024-03-06T04:43:12;98797.29;;;5.27;92.06
57847;BME280;43675;50.030;21.952;2024-03-06T04:45:38;98799.70;;;5.14;92.34
57847;BME280;43675;50.030;21.952;2024-03-06T04:48:11;98798.91;;;5.04;92.76
57847;BME280;43675;50.030;21.952;2024-03-06T04:50:38;98800.33;;;5.00;92.80
57847;BME280;43675;50.030;21.952;2024-03-06T04:53:05;98803.40;;;4.96;93.16
57847;BME280;43675;50.030;21.952;2024-03-06T04:55:31;98803.77;;;4.93;93.37
57847;BME280;43675;50.030;21.952;2024-03-06T04:57:58;98800.04;;;4.90;93.35
57847;BME280;43675;50.030;21.952;2024-03-06T05:00:24;98801.98;;;4.88;93.45
57847;BME280;43675;50.030;21.952;2024-03-06T05:02:51;98798.45;;;4.87;93.91
57847;BME280;43675;50.030;21.952;2024-03-06T05:05:18;98803.27;;;4.86;93.93
57847;BME280;43675;50.030;21.952;2024-03-06T05:07:44;98800.89;;;4.86;93.83
57847;BME280;43675;50.030;21.952;2024-03-06T05:10:11;98803.37;;;4.83;94.01
57847;BME280;43675;50.030;21.952;2024-03-06T05:12:38;98805.17;;;4.81;94.12
57847;BME280;43675;50.030;21.952;2024-03-06T05:15:05;98803.48;;;4.80;94.06
57847;BME280;43675;50.030;21.952;2024-03-06T05:17:32;98803.48;;;4.78;94.21
57847;BME280;43675;50.030;21.952;2024-03-06T05:19:58;98805.04;;;4.91;94.22
57847;BME280;43675;50.030;21.952;2024-03-06T05:22:25;98809.83;;;4.97;94.04
57847;BME280;43675;50.030;21.952;2024-03-06T05:24:52;98807.41;;;4.93;94.22
57847;BME280;43675;50.030;21.952;2024-03-06T05:27:18;98808.08;;;4.94;94.18
57847;BME280;43675;50.030;21.952;2024-03-06T05:29:45;98809.47;;;5.06;94.12
57847;BME280;43675;50.030;21.952;2024-03-06T05:32:12;98809.52;;;5.18;93.81
57847;BME280;43675;50.030;21.952;2024-03-06T05:34:39;98807.98;;;5.23;93.33
57847;BME280;43675;50.030;21.952;2024-03-06T05:37:05;98809.19;;;5.27;93.05
57847;BME280;43675;50.030;21.952;2024-03-06T05:39:32;98813.27;;;5.24;93.27
57847;BME280;43675;50.030;21.952;2024-03-06T05:42:06;98818.26;;;5.13;93.32
57847;BME280;43675;50.030;21.952;2024-03-06T05:44:33;98817.48;;;5.04;93.48
57847;BME280;43675;50.030;21.952;2024-03-06T05:47:06;98816.83;;;5.04;93.78
57847;BME280;43675;50.030;21.952;2024-03-06T05:49:33;98820.14;;;5.12;93.62
57847;BME280;43675;50.030;21.952;2024-03-06T05:52:00;98821.30;;;5.20;93.38
57847;BME280;43675;50.030;21.952;2024-03-06T05:54:26;98820.48;;;5.24;93.02
57847;BME280;43675;50.030;21.952;2024-03-06T05:56:53;98817.63;;;5.28;92.62
57847;BME280;43675;50.030;21.952;2024-03-06T05:59:20;98818.11;;;5.31;92.73
57847;BME280;43675;50.030;21.952;2024-03-06T06:01:46;98816.88;;;5.33;92.55
57847;BME280;43675;50.030;21.952;2024-03-06T06:04:14;98818.14;;;5.33;92.36
57847;BME280;43675;50.030;21.952;2024-03-06T06:06:40;98813.79;;;5.30;92.25
57847;BME280;43675;50.030;21.952;2024-03-06T06:09:07;98817.91;;;5.16;92.29
57847;BME280;43675;50.030;21.952;2024-03-06T06:11:33;98822.13;;;5.01;92.85
57847;BME280;43675;50.030;21.952;2024-03-06T06:14:00;98820.79;;;4.91;93.10
57847;BME280;43675;50.030;21.952;2024-03-06T06:16:26;98824.20;;;4.83;93.27
57847;BME280;43675;50.030;21.952;2024-03-06T06:18:53;98825.63;;;4.75;93.40
57847;BME280;43675;50.030;21.952;2024-03-06T06:21:20;98826.13;;;4.69;93.64
57847;BME280;43675;50.030;21.952;2024-03-06T06:23:46;98828.58;;;4.65;93.62
57847;BME280;43675;50.030;21.952;2024-03-06T06:26:14;98827.92;;;4.61;93.86
57847;BME280;43675;50.030;21.952;2024-03-06T06:28:41;98832.85;;;4.60;93.75
57847;BME280;43675;50.030;21.952;2024-03-06T06:31:08;98832.34;;;4.69;93.77
57847;BME280;43675;50.030;21.952;2024-03-06T06:33:34;98837.11;;;4.71;93.41
57847;BME280;43675;50.030;21.952;2024-03-06T06:36:01;98834.98;;;4.60;93.39
57847;BME280;43675;50.030;21.952;2024-03-06T06:38:28;98837.96;;;4.52;93.63
57847;BME280;43675;50.030;21.952;2024-03-06T06:40:55;98840.70;;;4.47;93.60
57847;BME280;43675;50.030;21.952;2024-03-06T06:43:22;98839.02;;;4.47;93.81
57847;BME280;43675;50.030;21.952;2024-03-06T06:45:48;98839.37;;;4.59;94.03
57847;BME280;43675;50.030;21.952;2024-03-06T06:48:21;98839.44;;;4.72;93.46
57847;BME280;43675;50.030;21.952;2024-03-06T06:50:48;98839.09;;;4.82;93.23
57847;BME280;43675;50.030;21.952;2024-03-06T06:53:14;98838.35;;;4.88;92.85
57847;BME280;43675;50.030;21.952;2024-03-06T06:55:41;98838.69;;;4.94;92.68
57847;BME280;43675;50.030;21.952;2024-03-06T06:58:08;98837.92;;;4.95;92.60
57847;BME280;43675;50.030;21.952;2024-03-06T07:00:34;98842.34;;;4.84;92.50
57847;BME280;43675;50.030;21.952;2024-03-06T07:03:01;98843.80;;;4.73;92.75
57847;BME280;43675;50.030;21.952;2024-03-06T07:05:34;98848.48;;;4.64;93.10
57847;BME280;43675;50.030;21.952;2024-03-06T07:08:01;98847.39;;;4.69;93.10
57847;BME280;43675;50.030;21.952;2024-03-06T07:10:27;98853.35;;;4.74;92.94
57847;BME280;43675;50.030;21.952;2024-03-06T07:12:54;98854.45;;;4.65;92.63
57847;BME280;43675;50.030;21.952;2024-03-06T07:15:21;98855.17;;;4.52;92.81
57847;BME280;43675;50.030;21.952;2024-03-06T07:17:48;98856.86;;;4.47;92.69
57847;BME280;43675;50.030;21.952;2024-03-06T07:20:14;98854.44;;;4.47;93.15
57847;BME280;43675;50.030;21.952;2024-03-06T07:22:41;98857.33;;;4.44;93.16
57847;BME280;43675;50.030;21.952;2024-03-06T07:25:08;98859.70;;;4.42;93.13
57847;BME280;43675;50.030;21.952;2024-03-06T07:27:35;98859.50;;;4.41;92.94
57847;BME280;43675;50.030;21.952;2024-03-06T07:30:04;98863.88;;;4.41;93.44
57847;BME280;43675;50.030;21.952;2024-03-06T07:32:31;98863.73;;;4.44;93.60
57847;BME280;43675;50.030;21.952;2024-03-06T07:34:58;98865.76;;;4.47;93.53
57847;BME280;43675;50.030;21.952;2024-03-06T07:37:26;98868.11;;;4.46;93.44
57847;BME280;43675;50.030;21.952;2024-03-06T07:39:55;98869.45;;;4.44;93.63
57847;BME280;43675;50.030;21.952;2024-03-06T07:42:22;98868.41;;;4.45;93.49
57847;BME280;43675;50.030;21.952;2024-03-06T07:44:49;98869.99;;;4.50;93.74
57847;BME280;43675;50.030;21.952;2024-03-06T07:47:21;98864.71;;;4.51;93.59
57847;BME280;43675;50.030;21.952;2024-03-06T07:49:48;98869.45;;;4.64;93.46
57847;BME280;43675;50.030;21.952;2024-03-06T07:52:15;98869.60;;;4.75;93.08
57847;BME280;43675;50.030;21.952;2024-03-06T07:54:40;98870.17;;;4.81;92.59
57847;BME280;43675;50.030;21.952;2024-03-06T07:57:06;98873.80;;;4.71;92.49
57847;BME280;43675;50.030;21.952;2024-03-06T07:59:31;98874.75;;;4.61;92.48
57847;BME280;43675;50.030;21.952;2024-03-06T08:01:57;98874.73;;;4.56;92.88
57847;BME280;43675;50.030;21.952;2024-03-06T08:04:23;98876.71;;;4.58;93.13
57847;BME280;43675;50.030;21.952;2024-03-06T08:06:49;98880.73;;;4.60;93.41
57847;BME280;43675;50.030;21.952;2024-03-06T08:09:21;98883.02;;;4.61;93.29
57847;BME280;43675;50.030;21.952;2024-03-06T08:11:47;98883.45;;;4.62;93.26
57847;BME280;43675;50.030;21.952;2024-03-06T08:14:12;98882.45;;;4.62;93.14
57847;BME280;43675;50.030;21.952;2024-03-06T08:16:38;98883.83;;;4.61;93.16
57847;BME280;43675;50.030;21.952;2024-03-06T08:19:04;98888.56;;;4.61;93.06
57847;BME280;43675;50.030;21.952;2024-03-06T08:21:29;98888.54;;;4.59;92.95
57847;BME280;43675;50.030;21.952;2024-03-06T08:23:55;98888.38;;;4.58;92.86
57847;BME280;43675;50.030;21.952;2024-03-06T08:26:22;98891.09;;;4.54;92.43
57847;BME280;43675;50.030;21.952;2024-03-06T08:28:48;98892.08;;;4.52;92.75
57847;BME280;43675;50.030;21.952;2024-03-06T08:31:19;98893.39;;;4.61;92.30
57847;BME280;43675;50.030;21.952;2024-03-06T08:33:45;98893.40;;;4.64;92.39
57847;BME280;43675;50.030;21.952;2024-03-06T08:36:11;98894.21;;;4.60;92.50
57847;BME280;43675;50.030;21.952;2024-03-06T08:38:36;98896.24;;;4.59;92.33
57847;BME280;43675;50.030;21.952;2024-03-06T08:41:02;98894.17;;;4.55;92.48
57847;BME280;43675;50.030;21.952;2024-03-06T08:43:28;98900.12;;;4.53;92.64
57847;BME280;43675;50.030;21.952;2024-03-06T08:45:53;98899.70;;;4.52;92.53
57847;BME280;43675;50.030;21.952;2024-03-06T08:48:21;98900.79;;;4.51;92.72
57847;BME280;43675;50.030;21.952;2024-03-06T08:50:46;98898.67;;;4.47;92.43
57847;BME280;43675;50.030;21.952;2024-03-06T08:53:12;98899.84;;;4.48;92.61
57847;BME280;43675;50.030;21.952;2024-03-06T08:55:38;98899.64;;;4.45;92.67
57847;BME280;43675;50.030;21.952;2024-03-06T08:58:13;98900.59;;;4.43;92.87
57847;BME280;43675;50.030;21.952;2024-03-06T09:00:39;98900.98;;;4.41;92.67
57847;BME280;43675;50.030;21.952;2024-03-06T09:03:05;98901.84;;;4.42;92.99
57847;BME280;43675;50.030;21.952;2024-03-06T09:05:30;98901.30;;;4.49;92.70
57847;BME280;43675;50.030;21.952;2024-03-06T09:07:56;98905.52;;;4.47;92.82
57847;BME280;43675;50.030;21.952;2024-03-06T09:10:22;98902.20;;;4.47;92.68
57847;BME280;43675;50.030;21.952;2024-03-06T09:12:51;98903.52;;;4.49;92.75
57847;BME280;43675;50.030;21.952;2024-03-06T09:15:17;98901.85;;;4.52;93.16
57847;BME280;43675;50.030;21.952;2024-03-06T09:17:46;98903.56;;;4.55;92.94
57847;BME280;43675;50.030;21.952;2024-03-06T09:20:12;98904.81;;;4.57;92.88
57847;BME280;43675;50.030;21.952;2024-03-06T09:22:38;98901.39;;;4.62;93.14
57847;BME280;43675;50.030;21.952;2024-03-06T09:25:05;98902.80;;;4.67;93.49
57847;BME280;43675;50.030;21.952;2024-03-06T09:27:31;98900.98;;;4.81;93.00
57847;BME280;43675;50.030;21.952;2024-03-06T09:29:56;98903.89;;;4.99;92.63
57847;BME280;43675;50.030;21.952;2024-03-06T09:32:22;98903.55;;;5.10;92.10
57847;BME280;43675;50.030;21.952;2024-03-06T09:34:47;98901.32;;;5.17;91.82
57847;BME280;43675;50.030;21.952;2024-03-06T09:37:13;98906.69;;;5.20;91.51
57847;BME280;43675;50.030;21.952;2024-03-06T09:39:39;98904.08;;;5.18;91.17
57847;BME280;43675;50.030;21.952;2024-03-06T09:42:05;98903.27;;;5.19;91.10
57847;BME280;43675;50.030;21.952;2024-03-06T09:44:31;98902.15;;;5.22;90.89
57847;BME280;43675;50.030;21.952;2024-03-06T09:46:59;98904.41;;;5.22;90.98
57847;BME280;43675;50.030;21.952;2024-03-06T09:49:34;98906.27;;;5.13;91.04
57847;BME280;43675;50.030;21.952;2024-03-06T09:52:02;98905.17;;;5.04;91.47
57847;BME280;43675;50.030;21.952;2024-03-06T09:54:28;98907.43;;;4.98;91.65
57847;BME280;43675;50.030;21.952;2024-03-06T09:56:54;98906.62;;;4.93;91.89
57847;BME280;43675;50.030;21.952;2024-03-06T09:59:20;98906.16;;;4.92;91.87
57847;BME280;43675;50.030;21.952;2024-03-06T10:02:00;98907.29;;;4.91;92.11
57847;BME280;43675;50.030;21.952;2024-03-06T10:04:27;98910.02;;;4.94;92.21
57847;BME280;43675;50.030;21.952;2024-03-06T10:06:55;98913.38;;;5.08;91.91
57847;BME280;43675;50.030;21.952;2024-03-06T10:09:21;98912.48;;;5.20;91.47
57847;BME280;43675;50.030;21.952;2024-03-06T10:11:47;98918.92;;;5.31;91.52
57847;BME280;43675;50.030;21.952;2024-03-06T10:14:13;98919.84;;;5.29;91.37
57847;BME280;43675;50.030;21.952;2024-03-06T10:16:58;98920.36;;;5.26;91.54
57847;BME280;43675;50.030;21.952;2024-03-06T10:19:26;98922.53;;;5.30;91.89
57847;BME280;43675;50.030;21.952;2024-03-06T10:21:53;98924.73;;;5.39;91.77
57847;BME280;43675;50.030;21.952;2024-03-06T10:26:48;98921.31;;;5.65;91.33
57847;BME280;43675;50.030;21.952;2024-03-06T10:29:18;98921.97;;;5.76;91.18
57847;BME280;43675;50.030;21.952;2024-03-06T10:32:08;98922.89;;;5.90;90.63
57847;BME280;43675;50.030;21.952;2024-03-06T10:34:33;98925.45;;;6.03;90.22
57847;BME280;43675;50.030;21.952;2024-03-06T10:37:00;98923.81;;;6.10;89.67
57847;BME280;43675;50.030;21.952;2024-03-06T10:39:27;98924.70;;;6.18;89.41
57847;BME280;43675;50.030;21.952;2024-03-06T10:41:56;98928.10;;;6.27;89.24
57847;BME280;43675;50.030;21.952;2024-03-06T10:44:24;98926.60;;;6.33;88.90
57847;BME280;43675;50.030;21.952;2024-03-06T10:46:56;98926.96;;;6.33;88.66
57847;BME280;43675;50.030;21.952;2024-03-06T10:49:30;98921.55;;;6.28;88.72
57847;BME280;43675;50.030;21.952;2024-03-06T10:52:01;98925.64;;;6.25;88.93
57847;BME280;43675;50.030;21.952;2024-03-06T10:54:28;98920.92;;;6.22;88.93
57847;BME280;43675;50.030;21.952;2024-03-06T10:56:55;98925.11;;;6.17;88.90
57847;BME280;43675;50.030;21.952;2024-03-06T10:59:29;98925.88;;;6.14;88.85
57847;BME280;43675;50.030;21.952;2024-03-06T11:01:55;98924.43;;;6.15;88.78
57847;BME280;43675;50.030;21.952;2024-03-06T11:04:25;98925.55;;;6.13;89.01
57847;BME280;43675;50.030;21.952;2024-03-06T11:06:52;98922.58;;;6.15;89.00
57847;BME280;43675;50.030;21.952;2024-03-06T11:09:18;98924.58;;;6.17;89.24
57847;BME280;43675;50.030;21.952;2024-03-06T11:11:51;98925.06;;;6.27;89.10
57847;BME280;43675;50.030;21.952;2024-03-06T11:14:17;98930.73;;;6.30;88.81
57847;BME280;43675;50.030;21.952;2024-03-06T11:17:15;98928.20;;;6.36;88.54
57847;BME280;43675;50.030;21.952;2024-03-06T11:28:15;98923.24;;;6.39;88.31
57847;BME280;43675;50.030;21.952;2024-03-06T11:33:19;98920.14;;;6.56;88.23
57847;BME280;43675;50.030;21.952;2024-03-06T11:39:05;98918.30;;;6.74;87.72
57847;BME280;43675;50.030;21.952;2024-03-06T11:44:12;98909.24;;;7.09;87.41
57847;BME280;43675;50.030;21.952;2024-03-06T11:46:49;98908.82;;;7.25;87.08
57847;BME280;43675;50.030;21.952;2024-03-06T11:49:19;98908.05;;;7.29;86.68
57847;BME280;43675;50.030;21.952;2024-03-06T11:51:45;98905.58;;;7.33;86.78
57847;BME280;43675;50.030;21.952;2024-03-06T11:54:16;98901.41;;;7.53;86.31
57847;BME280;43675;50.030;21.952;2024-03-06T11:56:44;98904.88;;;7.67;86.02
57847;BME280;43675;50.030;21.952;2024-03-06T11:59:10;98902.39;;;7.81;86.01
57847;BME280;43675;50.030;21.952;2024-03-06T12:01:37;98899.52;;;7.98;85.63
57847;BME280;43675;50.030;21.952;2024-03-06T12:04:03;98895.55;;;8.11;84.52
57847;BME280;43675;50.030;21.952;2024-03-06T12:06:29;98894.24;;;8.19;83.77
57847;BME280;43675;50.030;21.952;2024-03-06T12:08:55;98891.59;;;8.24;83.05
57847;BME280;43675;50.030;21.952;2024-03-06T12:11:20;98889.80;;;8.31;82.54
57847;BME280;43675;50.030;21.952;2024-03-06T12:13:47;98888.59;;;8.46;82.56
57847;BME280;43675;50.030;21.952;2024-03-06T12:16:14;98892.88;;;8.60;82.38
57847;BME280;43675;50.030;21.952;2024-03-06T12:18:39;98888.71;;;8.72;81.97
57847;BME280;43675;50.030;21.952;2024-03-06T12:21:05;98894.69;;;8.88;81.35
57847;BME280;43675;50.030;21.952;2024-03-06T12:23:30;98895.96;;;9.06;80.93
57847;BME280;43675;50.030;21.952;2024-03-06T12:26:04;98894.09;;;9.34;80.52
57847;BME280;43675;50.030;21.952;2024-03-06T12:28:30;98892.40;;;9.60;79.54
57847;BME280;43675;50.030;21.952;2024-03-06T12:30:55;98890.08;;;9.79;78.51
57847;BME280;43675;50.030;21.952;2024-03-06T12:33:21;98884.98;;;9.95;77.98
57847;BME280;43675;50.030;21.952;2024-03-06T12:35:46;98888.36;;;10.01;77.16
57847;BME280;43675;50.030;21.952;2024-03-06T12:38:13;98888.03;;;9.95;76.68
57847;BME280;43675;50.030;21.952;2024-03-06T12:40:39;98887.41;;;9.89;76.04
57847;BME280;43675;50.030;21.952;2024-03-06T12:43:05;98882.66;;;9.94;75.86
57847;BME280;43675;50.030;21.952;2024-03-06T12:45:30;98881.98;;;10.06;74.98
57847;BME280;43675;50.030;21.952;2024-03-06T12:47:56;98885.48;;;10.16;74.56
57847;BME280;43675;50.030;21.952;2024-03-06T12:50:28;98883.81;;;10.31;74.47
57847;BME280;43675;50.030;21.952;2024-03-06T12:52:54;98882.23;;;10.47;74.13
57847;BME280;43675;50.030;21.952;2024-03-06T12:55:26;98884.77;;;10.55;73.69
57847;BME280;43675;50.030;21.952;2024-03-06T12:57:52;98884.57;;;10.52;72.84
57847;BME280;43675;50.030;21.952;2024-03-06T13:00:18;98885.67;;;10.43;72.32
57847;BME280;43675;50.030;21.952;2024-03-06T13:02:50;98886.33;;;10.26;72.74
57847;BME280;43675;50.030;21.952;2024-03-06T13:05:16;98887.14;;;10.07;72.93
57847;BME280;43675;50.030;21.952;2024-03-06T13:07:42;98888.65;;;9.87;73.12
57847;BME280;43675;50.030;21.952;2024-03-06T13:10:09;98893.02;;;9.67;73.32
57847;BME280;43675;50.030;21.952;2024-03-06T13:12:36;98892.02;;;9.49;73.50
57847;BME280;43675;50.030;21.952;2024-03-06T13:15:02;98897.61;;;9.37;74.15
57847;BME280;43675;50.030;21.952;2024-03-06T13:17:27;98895.50;;;9.39;74.52
57847;BME280;43675;50.030;21.952;2024-03-06T13:19:53;98894.63;;;9.44;74.73